Airfield :
LOGIN :

Register | Disclaimer

   EN    FR    IT 

 










Legend :    VFR   Marginal VFR   IFR   Intensive IFR   Very Intensive IFR
Visi :
Ceiling :
>= 8 km
>= 3000ft
5 to 8 km
1000 to 3000 ft
1500m to 5 km
500 to 1000 ft
800 to 1500m
200 to 500 ft
< 800m
< 200 ft
Symbols :   Thunderstorms  Fog  Heavy snow  Heavy precipitations  Wind > 20 kt
SIGMETs :     Misc.  Thunderstorms  Icing  Turbulence  Mountain Waves  Volcanic Ashes







- Airport Elevation : 17 ft
- IATA code : KLR


ESMQ - Kalmar

CURRENT METAR :
  • 230920Z 15011KT CAVOK 25/14 Q1013

EXPIRED METARs :
  • 230850Z 17010KT CAVOK 24/12 Q1013
  • 230820Z 18007KT 160V220 CAVOK 24/12 Q1012
  • 230750Z 25007KT 210V300 CAVOK 24/12 Q1013
  • 230720Z 26007KT 230V290 CAVOK 23/13 Q1013
  • 230650Z 26005KT 230V300 CAVOK 22/13 Q1013

TAF TAF ESMQ
Valid from the 23 at 09:00 until the 23 at 18:00 UTC


230830Z 2309/2318 26006KT CAVOK
BECMG 2309/2310 17012KT
BECMG 2314/2316 29006KT
No reported NOTAMs for that airfield.



MET'MAP, your aeronautical weather chart ! - Copyright ORBIFLY December 2007 - Disclaimer

ORBIFLY MET'MAP TEAM :

Programming & Development : Alexandra Zaïnal
Concept & Development : Baudouin d'Aumeries
Co-Development & Prog : Marc-Olivier Méhu
Technical & hardware support : Manuel Goepfert

Contact : metmap@orbifly.com




SOURCES & CREDITS :

   NOAA